sensor_id;sensor_type;location;lat;lon;timestamp;P1;durP1;ratioP1;P2;durP2;ratioP2
22234;SDS011;11286;45.596;5.284;2022-10-16T00:00:30;4.35;;;3.17;;
22234;SDS011;11286;45.596;5.284;2022-10-16T00:02:56;5.55;;;2.97;;
22234;SDS011;11286;45.596;5.284;2022-10-16T00:05:21;4.60;;;3.30;;
22234;SDS011;11286;45.596;5.284;2022-10-16T00:07:47;3.92;;;3.13;;
22234;SDS011;11286;45.596;5.284;2022-10-16T00:10:13;4.18;;;3.17;;
22234;SDS011;11286;45.596;5.284;2022-10-16T00:12:39;6.03;;;3.40;;
22234;SDS011;11286;45.596;5.284;2022-10-16T00:15:04;6.63;;;4.05;;
22234;SDS011;11286;45.596;5.284;2022-10-16T00:17:30;6.30;;;3.30;;
22234;SDS011;11286;45.596;5.284;2022-10-16T00:19:56;5.95;;;3.60;;
22234;SDS011;11286;45.596;5.284;2022-10-16T00:22:22;6.20;;;3.28;;
22234;SDS011;11286;45.596;5.284;2022-10-16T00:24:49;5.72;;;3.33;;
22234;SDS011;11286;45.596;5.284;2022-10-16T00:27:14;4.45;;;3.13;;
22234;SDS011;11286;45.596;5.284;2022-10-16T00:29:40;5.35;;;3.40;;
22234;SDS011;11286;45.596;5.284;2022-10-16T00:32:05;9.80;;;3.53;;
22234;SDS011;11286;45.596;5.284;2022-10-16T00:34:31;5.75;;;3.47;;
22234;SDS011;11286;45.596;5.284;2022-10-16T00:36:56;4.63;;;3.50;;
22234;SDS011;11286;45.596;5.284;2022-10-16T00:39:22;5.38;;;3.17;;
22234;SDS011;11286;45.596;5.284;2022-10-16T00:41:48;3.80;;;3.40;;
22234;SDS011;11286;45.596;5.284;2022-10-16T00:47:19;4.40;;;3.28;;
22234;SDS011;11286;45.596;5.284;2022-10-16T00:49:50;5.40;;;3.10;;
22234;SDS011;11286;45.596;5.284;2022-10-16T00:52:17;4.47;;;3.42;;
22234;SDS011;11286;45.596;5.284;2022-10-16T00:54:44;7.13;;;3.53;;
22234;SDS011;11286;45.596;5.284;2022-10-16T00:57:12;5.20;;;3.35;;
22234;SDS011;11286;45.596;5.284;2022-10-16T00:59:39;4.65;;;3.40;;
22234;SDS011;11286;45.596;5.284;2022-10-16T01:02:07;6.55;;;3.40;;
22234;SDS011;11286;45.596;5.284;2022-10-16T01:04:36;4.25;;;3.20;;
22234;SDS011;11286;45.596;5.284;2022-10-16T01:15:01;4.22;;;3.30;;
22234;SDS011;11286;45.596;5.284;2022-10-16T01:17:46;5.43;;;3.60;;
22234;SDS011;11286;45.596;5.284;2022-10-16T01:20:37;6.35;;;3.70;;
22234;SDS011;11286;45.596;5.284;2022-10-16T01:23:21;5.88;;;3.67;;
22234;SDS011;11286;45.596;5.284;2022-10-16T01:28:36;7.05;;;3.60;;
22234;SDS011;11286;45.596;5.284;2022-10-16T01:31:15;4.30;;;3.85;;
22234;SDS011;11286;45.596;5.284;2022-10-16T01:33:45;5.38;;;3.63;;
22234;SDS011;11286;45.596;5.284;2022-10-16T01:36:17;6.35;;;3.90;;
22234;SDS011;11286;45.596;5.284;2022-10-16T01:38:49;4.88;;;3.53;;
22234;SDS011;11286;45.596;5.284;2022-10-16T01:41:29;6.38;;;3.75;;
22234;SDS011;11286;45.596;5.284;2022-10-16T01:44:05;5.57;;;3.60;;
22234;SDS011;11286;45.596;5.284;2022-10-16T01:46:44;5.65;;;3.80;;
22234;SDS011;11286;45.596;5.284;2022-10-16T01:49:12;5.75;;;3.60;;
22234;SDS011;11286;45.596;5.284;2022-10-16T01:51:39;4.18;;;3.78;;
22234;SDS011;11286;45.596;5.284;2022-10-16T01:54:07;5.72;;;3.83;;
22234;SDS011;11286;45.596;5.284;2022-10-16T01:56:33;6.65;;;4.07;;
22234;SDS011;11286;45.596;5.284;2022-10-16T01:59:09;7.60;;;3.60;;
22234;SDS011;11286;45.596;5.284;2022-10-16T02:01:39;7.13;;;4.60;;
22234;SDS011;11286;45.596;5.284;2022-10-16T02:04:09;6.63;;;3.92;;
22234;SDS011;11286;45.596;5.284;2022-10-16T02:06:43;4.30;;;3.88;;
22234;SDS011;11286;45.596;5.284;2022-10-16T02:09:09;7.72;;;3.92;;
22234;SDS011;11286;45.596;5.284;2022-10-16T02:11:35;5.80;;;4.22;;
22234;SDS011;11286;45.596;5.284;2022-10-16T02:14:02;8.40;;;3.92;;
22234;SDS011;11286;45.596;5.284;2022-10-16T02:16:34;10.60;;;4.18;;
22234;SDS011;11286;45.596;5.284;2022-10-16T02:19:02;6.72;;;4.38;;
22234;SDS011;11286;45.596;5.284;2022-10-16T02:21:29;4.93;;;4.18;;
22234;SDS011;11286;45.596;5.284;2022-10-16T02:24:26;4.93;;;3.80;;
22234;SDS011;11286;45.596;5.284;2022-10-16T02:26:57;7.70;;;4.45;;
22234;SDS011;11286;45.596;5.284;2022-10-16T02:29:47;6.82;;;4.13;;
22234;SDS011;11286;45.596;5.284;2022-10-16T02:32:22;6.68;;;4.65;;
22234;SDS011;11286;45.596;5.284;2022-10-16T02:34:53;8.07;;;5.25;;
22234;SDS011;11286;45.596;5.284;2022-10-16T02:37:19;6.25;;;4.30;;
22234;SDS011;11286;45.596;5.284;2022-10-16T02:39:45;7.40;;;4.50;;
22234;SDS011;11286;45.596;5.284;2022-10-16T02:42:12;7.07;;;4.68;;
22234;SDS011;11286;45.596;5.284;2022-10-16T02:44:38;6.85;;;4.75;;
22234;SDS011;11286;45.596;5.284;2022-10-16T02:47:04;5.95;;;4.50;;
22234;SDS011;11286;45.596;5.284;2022-10-16T02:49:30;7.32;;;4.50;;
22234;SDS011;11286;45.596;5.284;2022-10-16T02:51:56;6.38;;;4.72;;
22234;SDS011;11286;45.596;5.284;2022-10-16T02:54:21;9.75;;;4.50;;
22234;SDS011;11286;45.596;5.284;2022-10-16T02:56:47;5.78;;;4.55;;
22234;SDS011;11286;45.596;5.284;2022-10-16T02:59:12;6.07;;;4.63;;
22234;SDS011;11286;45.596;5.284;2022-10-16T03:01:38;6.60;;;4.90;;
22234;SDS011;11286;45.596;5.284;2022-10-16T03:04:03;7.85;;;5.28;;
22234;SDS011;11286;45.596;5.284;2022-10-16T03:06:29;6.25;;;4.82;;
22234;SDS011;11286;45.596;5.284;2022-10-16T03:08:55;5.90;;;5.13;;
22234;SDS011;11286;45.596;5.284;2022-10-16T03:11:20;8.85;;;5.10;;
22234;SDS011;11286;45.596;5.284;2022-10-16T03:13:46;6.40;;;5.20;;
22234;SDS011;11286;45.596;5.284;2022-10-16T03:16:12;6.15;;;5.10;;
22234;SDS011;11286;45.596;5.284;2022-10-16T03:18:37;6.78;;;4.85;;
22234;SDS011;11286;45.596;5.284;2022-10-16T03:21:03;7.47;;;5.35;;
22234;SDS011;11286;45.596;5.284;2022-10-16T03:23:28;5.95;;;5.35;;
22234;SDS011;11286;45.596;5.284;2022-10-16T03:25:54;7.38;;;5.38;;
22234;SDS011;11286;45.596;5.284;2022-10-16T03:28:20;9.05;;;5.63;;
22234;SDS011;11286;45.596;5.284;2022-10-16T03:30:45;7.45;;;5.30;;
22234;SDS011;11286;45.596;5.284;2022-10-16T03:33:11;9.20;;;5.32;;
22234;SDS011;11286;45.596;5.284;2022-10-16T03:35:37;5.85;;;5.10;;
22234;SDS011;11286;45.596;5.284;2022-10-16T03:38:03;8.00;;;5.45;;
22234;SDS011;11286;45.596;5.284;2022-10-16T03:40:28;7.15;;;5.32;;
22234;SDS011;11286;45.596;5.284;2022-10-16T03:42:54;9.15;;;5.50;;
22234;SDS011;11286;45.596;5.284;2022-10-16T03:45:22;7.88;;;5.40;;
22234;SDS011;11286;45.596;5.284;2022-10-16T03:47:48;8.13;;;5.50;;
22234;SDS011;11286;45.596;5.284;2022-10-16T03:50:14;9.35;;;5.15;;
22234;SDS011;11286;45.596;5.284;2022-10-16T03:52:39;8.68;;;5.43;;
22234;SDS011;11286;45.596;5.284;2022-10-16T03:55:05;7.15;;;5.68;;
22234;SDS011;11286;45.596;5.284;2022-10-16T03:57:31;7.60;;;5.45;;
22234;SDS011;11286;45.596;5.284;2022-10-16T03:59:57;7.78;;;5.45;;
22234;SDS011;11286;45.596;5.284;2022-10-16T04:02:22;9.15;;;5.40;;
22234;SDS011;11286;45.596;5.284;2022-10-16T04:04:48;6.40;;;5.28;;
22234;SDS011;11286;45.596;5.284;2022-10-16T04:07:14;6.43;;;5.45;;
22234;SDS011;11286;45.596;5.284;2022-10-16T04:09:39;6.28;;;5.20;;
22234;SDS011;11286;45.596;5.284;2022-10-16T04:12:05;9.10;;;5.40;;
22234;SDS011;11286;45.596;5.284;2022-10-16T04:14:30;6.90;;;5.43;;
22234;SDS011;11286;45.596;5.284;2022-10-16T04:16:56;9.93;;;5.90;;
22234;SDS011;11286;45.596;5.284;2022-10-16T04:19:21;8.18;;;5.88;;
22234;SDS011;11286;45.596;5.284;2022-10-16T04:21:47;9.40;;;5.40;;
22234;SDS011;11286;45.596;5.284;2022-10-16T04:24:13;9.15;;;5.40;;
22234;SDS011;11286;45.596;5.284;2022-10-16T04:26:38;10.68;;;5.90;;
22234;SDS011;11286;45.596;5.284;2022-10-16T04:29:04;6.95;;;5.47;;
22234;SDS011;11286;45.596;5.284;2022-10-16T04:31:31;7.57;;;5.35;;
22234;SDS011;11286;45.596;5.284;2022-10-16T04:33:56;8.60;;;6.10;;
22234;SDS011;11286;45.596;5.284;2022-10-16T04:36:22;9.55;;;5.43;;
22234;SDS011;11286;45.596;5.284;2022-10-16T04:38:47;9.25;;;5.63;;
22234;SDS011;11286;45.596;5.284;2022-10-16T04:41:13;7.57;;;5.72;;
22234;SDS011;11286;45.596;5.284;2022-10-16T04:43:39;10.43;;;5.50;;
22234;SDS011;11286;45.596;5.284;2022-10-16T04:46:04;8.15;;;5.70;;
22234;SDS011;11286;45.596;5.284;2022-10-16T04:48:30;7.93;;;5.70;;
22234;SDS011;11286;45.596;5.284;2022-10-16T04:50:56;8.00;;;5.50;;
22234;SDS011;11286;45.596;5.284;2022-10-16T04:53:22;6.15;;;5.22;;
22234;SDS011;11286;45.596;5.284;2022-10-16T04:55:48;8.10;;;5.57;;
22234;SDS011;11286;45.596;5.284;2022-10-16T04:58:14;8.23;;;5.57;;
22234;SDS011;11286;45.596;5.284;2022-10-16T05:00:39;10.05;;;5.75;;
22234;SDS011;11286;45.596;5.284;2022-10-16T05:03:05;6.88;;;5.78;;
22234;SDS011;11286;45.596;5.284;2022-10-16T05:05:33;7.07;;;5.57;;
22234;SDS011;11286;45.596;5.284;2022-10-16T05:07:59;8.73;;;5.85;;
22234;SDS011;11286;45.596;5.284;2022-10-16T05:10:25;9.27;;;5.72;;
22234;SDS011;11286;45.596;5.284;2022-10-16T05:12:51;9.27;;;5.82;;
22234;SDS011;11286;45.596;5.284;2022-10-16T05:15:17;12.18;;;5.65;;
22234;SDS011;11286;45.596;5.284;2022-10-16T05:17:43;6.82;;;5.07;;
22234;SDS011;11286;45.596;5.284;2022-10-16T05:20:09;7.15;;;5.25;;
22234;SDS011;11286;45.596;5.284;2022-10-16T05:22:35;7.22;;;5.35;;
22234;SDS011;11286;45.596;5.284;2022-10-16T05:25:00;8.32;;;5.95;;
22234;SDS011;11286;45.596;5.284;2022-10-16T05:27:26;6.63;;;5.68;;
22234;SDS011;11286;45.596;5.284;2022-10-16T05:29:52;8.45;;;5.45;;
22234;SDS011;11286;45.596;5.284;2022-10-16T05:32:17;7.53;;;5.82;;
22234;SDS011;11286;45.596;5.284;2022-10-16T05:34:43;6.50;;;5.63;;
22234;SDS011;11286;45.596;5.284;2022-10-16T05:37:10;9.82;;;5.85;;
22234;SDS011;11286;45.596;5.284;2022-10-16T05:39:37;6.47;;;5.60;;
22234;SDS011;11286;45.596;5.284;2022-10-16T05:42:03;7.47;;;5.35;;
22234;SDS011;11286;45.596;5.284;2022-10-16T05:44:30;7.68;;;5.10;;
22234;SDS011;11286;45.596;5.284;2022-10-16T05:46:55;6.90;;;5.07;;
22234;SDS011;11286;45.596;5.284;2022-10-16T05:49:21;7.00;;;5.28;;
22234;SDS011;11286;45.596;5.284;2022-10-16T05:51:47;6.85;;;5.65;;
22234;SDS011;11286;45.596;5.284;2022-10-16T05:54:12;7.32;;;5.45;;
22234;SDS011;11286;45.596;5.284;2022-10-16T05:56:38;9.60;;;5.38;;
22234;SDS011;11286;45.596;5.284;2022-10-16T05:59:04;7.10;;;5.45;;
22234;SDS011;11286;45.596;5.284;2022-10-16T06:01:29;9.65;;;5.70;;
22234;SDS011;11286;45.596;5.284;2022-10-16T06:03:55;8.80;;;5.45;;
22234;SDS011;11286;45.596;5.284;2022-10-16T06:06:23;9.00;;;5.38;;
22234;SDS011;11286;45.596;5.284;2022-10-16T06:08:51;8.73;;;5.43;;
22234;SDS011;11286;45.596;5.284;2022-10-16T06:11:24;7.10;;;5.30;;
22234;SDS011;11286;45.596;5.284;2022-10-16T06:13:52;11.40;;;5.68;;
22234;SDS011;11286;45.596;5.284;2022-10-16T06:16:19;8.80;;;5.88;;
22234;SDS011;11286;45.596;5.284;2022-10-16T06:18:45;6.47;;;5.50;;
22234;SDS011;11286;45.596;5.284;2022-10-16T06:21:12;7.93;;;5.55;;
22234;SDS011;11286;45.596;5.284;2022-10-16T06:23:41;11.10;;;5.68;;
22234;SDS011;11286;45.596;5.284;2022-10-16T06:26:08;6.45;;;5.28;;
22234;SDS011;11286;45.596;5.284;2022-10-16T06:28:35;8.85;;;5.43;;
22234;SDS011;11286;45.596;5.284;2022-10-16T06:31:01;7.00;;;5.63;;
22234;SDS011;11286;45.596;5.284;2022-10-16T06:33:28;7.20;;;5.18;;
22234;SDS011;11286;45.596;5.284;2022-10-16T06:35:53;7.45;;;5.65;;
22234;SDS011;11286;45.596;5.284;2022-10-16T06:38:24;8.35;;;5.63;;
22234;SDS011;11286;45.596;5.284;2022-10-16T06:40:50;6.38;;;5.28;;
22234;SDS011;11286;45.596;5.284;2022-10-16T06:43:15;6.30;;;5.28;;
22234;SDS011;11286;45.596;5.284;2022-10-16T06:45:41;8.10;;;4.88;;
22234;SDS011;11286;45.596;5.284;2022-10-16T06:48:06;6.63;;;4.68;;
22234;SDS011;11286;45.596;5.284;2022-10-16T06:50:32;5.78;;;5.00;;
22234;SDS011;11286;45.596;5.284;2022-10-16T06:52:58;6.43;;;4.63;;
22234;SDS011;11286;45.596;5.284;2022-10-16T06:55:23;9.75;;;4.88;;
22234;SDS011;11286;45.596;5.284;2022-10-16T06:57:49;7.53;;;4.47;;
22234;SDS011;11286;45.596;5.284;2022-10-16T07:00:15;12.90;;;4.65;;
22234;SDS011;11286;45.596;5.284;2022-10-16T07:02:40;5.47;;;4.35;;
22234;SDS011;11286;45.596;5.284;2022-10-16T07:05:06;7.28;;;4.00;;
22234;SDS011;11286;45.596;5.284;2022-10-16T07:07:32;5.00;;;4.40;;
22234;SDS011;11286;45.596;5.284;2022-10-16T07:09:57;6.70;;;4.50;;
22234;SDS011;11286;45.596;5.284;2022-10-16T07:12:23;6.18;;;4.05;;
22234;SDS011;11286;45.596;5.284;2022-10-16T07:14:49;7.63;;;4.03;;
22234;SDS011;11286;45.596;5.284;2022-10-16T07:17:17;6.75;;;4.32;;
22234;SDS011;11286;45.596;5.284;2022-10-16T07:19:44;5.57;;;4.15;;
22234;SDS011;11286;45.596;5.284;2022-10-16T07:22:10;7.25;;;4.63;;
22234;SDS011;11286;45.596;5.284;2022-10-16T07:24:36;4.32;;;3.80;;
22234;SDS011;11286;45.596;5.284;2022-10-16T07:27:01;6.80;;;3.78;;
22234;SDS011;11286;45.596;5.284;2022-10-16T07:29:27;7.57;;;4.35;;
22234;SDS011;11286;45.596;5.284;2022-10-16T07:31:53;4.85;;;3.75;;
22234;SDS011;11286;45.596;5.284;2022-10-16T07:34:19;5.53;;;3.47;;
22234;SDS011;11286;45.596;5.284;2022-10-16T07:36:50;8.15;;;4.15;;
22234;SDS011;11286;45.596;5.284;2022-10-16T07:39:16;7.15;;;3.45;;
22234;SDS011;11286;45.596;5.284;2022-10-16T07:41:42;6.32;;;3.85;;
22234;SDS011;11286;45.596;5.284;2022-10-16T07:44:07;4.20;;;3.30;;
22234;SDS011;11286;45.596;5.284;2022-10-16T07:46:33;4.72;;;3.65;;
22234;SDS011;11286;45.596;5.284;2022-10-16T07:49:01;4.75;;;3.17;;
22234;SDS011;11286;45.596;5.284;2022-10-16T07:51:27;4.70;;;3.20;;
22234;SDS011;11286;45.596;5.284;2022-10-16T07:53:53;5.72;;;3.30;;
22234;SDS011;11286;45.596;5.284;2022-10-16T07:56:19;4.68;;;3.10;;
22234;SDS011;11286;45.596;5.284;2022-10-16T07:58:46;6.47;;;3.30;;
22234;SDS011;11286;45.596;5.284;2022-10-16T08:01:14;4.40;;;2.92;;
22234;SDS011;11286;45.596;5.284;2022-10-16T08:03:42;5.03;;;3.20;;
22234;SDS011;11286;45.596;5.284;2022-10-16T08:06:08;6.22;;;3.10;;
22234;SDS011;11286;45.596;5.284;2022-10-16T08:08:34;5.35;;;3.28;;
22234;SDS011;11286;45.596;5.284;2022-10-16T08:11:00;6.85;;;3.00;;
22234;SDS011;11286;45.596;5.284;2022-10-16T08:13:28;5.65;;;2.88;;
22234;SDS011;11286;45.596;5.284;2022-10-16T08:15:56;4.57;;;2.88;;
22234;SDS011;11286;45.596;5.284;2022-10-16T08:18:22;4.55;;;2.80;;
22234;SDS011;11286;45.596;5.284;2022-10-16T08:20:48;3.55;;;2.70;;
22234;SDS011;11286;45.596;5.284;2022-10-16T08:23:19;5.07;;;3.00;;
22234;SDS011;11286;45.596;5.284;2022-10-16T08:25:45;3.20;;;2.78;;
22234;SDS011;11286;45.596;5.284;2022-10-16T08:28:11;5.38;;;2.80;;
22234;SDS011;11286;45.596;5.284;2022-10-16T08:30:36;3.60;;;2.70;;
22234;SDS011;11286;45.596;5.284;2022-10-16T08:33:02;3.55;;;2.90;;
22234;SDS011;11286;45.596;5.284;2022-10-16T08:35:28;3.42;;;2.75;;
22234;SDS011;11286;45.596;5.284;2022-10-16T08:37:54;2.75;;;2.53;;
22234;SDS011;11286;45.596;5.284;2022-10-16T08:40:20;3.70;;;2.70;;
22234;SDS011;11286;45.596;5.284;2022-10-16T08:45:41;3.00;;;2.65;;
22234;SDS011;11286;45.596;5.284;2022-10-16T08:48:30;3.42;;;2.47;;
22234;SDS011;11286;45.596;5.284;2022-10-16T08:51:01;6.18;;;2.63;;
22234;SDS011;11286;45.596;5.284;2022-10-16T08:56:21;7.47;;;2.92;;
22234;SDS011;11286;45.596;5.284;2022-10-16T08:58:47;4.45;;;2.22;;
22234;SDS011;11286;45.596;5.284;2022-10-16T09:01:14;3.50;;;2.60;;
22234;SDS011;11286;45.596;5.284;2022-10-16T09:04:05;3.95;;;2.50;;
22234;SDS011;11286;45.596;5.284;2022-10-16T09:07:04;3.83;;;2.65;;
22234;SDS011;11286;45.596;5.284;2022-10-16T09:09:54;2.67;;;2.38;;
22234;SDS011;11286;45.596;5.284;2022-10-16T09:12:36;4.57;;;2.58;;
22234;SDS011;11286;45.596;5.284;2022-10-16T09:17:44;3.63;;;2.35;;
22234;SDS011;11286;45.596;5.284;2022-10-16T09:22:48;3.10;;;2.30;;
22234;SDS011;11286;45.596;5.284;2022-10-16T09:25:16;3.47;;;2.20;;
22234;SDS011;11286;45.596;5.284;2022-10-16T09:27:45;3.72;;;2.38;;
22234;SDS011;11286;45.596;5.284;2022-10-16T09:30:14;3.25;;;2.42;;
22234;SDS011;11286;45.596;5.284;2022-10-16T09:32:43;3.50;;;2.35;;
22234;SDS011;11286;45.596;5.284;2022-10-16T09:35:16;3.75;;;2.40;;
22234;SDS011;11286;45.596;5.284;2022-10-16T09:37:44;3.92;;;2.40;;
22234;SDS011;11286;45.596;5.284;2022-10-16T09:40:13;6.00;;;2.42;;
22234;SDS011;11286;45.596;5.284;2022-10-16T09:42:56;3.50;;;2.28;;
22234;SDS011;11286;45.596;5.284;2022-10-16T09:45:27;4.57;;;2.42;;
22234;SDS011;11286;45.596;5.284;2022-10-16T09:47:53;3.17;;;2.30;;
22234;SDS011;11286;45.596;5.284;2022-10-16T09:50:22;3.42;;;2.10;;
22234;SDS011;11286;45.596;5.284;2022-10-16T09:53:01;2.83;;;2.13;;
22234;SDS011;11286;45.596;5.284;2022-10-16T09:55:29;4.03;;;2.25;;
22234;SDS011;11286;45.596;5.284;2022-10-16T09:57:54;3.05;;;2.30;;
22234;SDS011;11286;45.596;5.284;2022-10-16T10:00:21;3.45;;;2.20;;
22234;SDS011;11286;45.596;5.284;2022-10-16T10:02:48;5.38;;;2.25;;
22234;SDS011;11286;45.596;5.284;2022-10-16T10:08:02;5.47;;;2.25;;
22234;SDS011;11286;45.596;5.284;2022-10-16T10:10:33;4.30;;;2.30;;
22234;SDS011;11286;45.596;5.284;2022-10-16T10:13:24;5.22;;;2.33;;
22234;SDS011;11286;45.596;5.284;2022-10-16T10:15:52;4.45;;;2.70;;
22234;SDS011;11286;45.596;5.284;2022-10-16T10:18:19;3.70;;;2.22;;
22234;SDS011;11286;45.596;5.284;2022-10-16T10:20:56;4.72;;;2.00;;
22234;SDS011;11286;45.596;5.284;2022-10-16T10:23:27;2.75;;;2.15;;
22234;SDS011;11286;45.596;5.284;2022-10-16T10:29:13;2.83;;;1.90;;
22234;SDS011;11286;45.596;5.284;2022-10-16T10:31:43;3.70;;;2.20;;
22234;SDS011;11286;45.596;5.284;2022-10-16T10:37:11;3.83;;;2.25;;
22234;SDS011;11286;45.596;5.284;2022-10-16T10:39:59;3.83;;;2.60;;
22234;SDS011;11286;45.596;5.284;2022-10-16T10:43:50;2.95;;;2.03;;
22234;SDS011;11286;45.596;5.284;2022-10-16T10:45:54;2.63;;;2.38;;
22234;SDS011;11286;45.596;5.284;2022-10-16T10:54:21;2.15;;;1.92;;
22234;SDS011;11286;45.596;5.284;2022-10-16T10:56:57;3.72;;;2.05;;
22234;SDS011;11286;45.596;5.284;2022-10-16T11:11:38;2.50;;;2.30;;
22234;SDS011;11286;45.596;5.284;2022-10-16T11:14:20;2.88;;;2.30;;
22234;SDS011;11286;45.596;5.284;2022-10-16T11:17:34;2.40;;;1.90;;
22234;SDS011;11286;45.596;5.284;2022-10-16T11:19:45;3.65;;;2.47;;
22234;SDS011;11286;45.596;5.284;2022-10-16T11:22:39;2.88;;;2.33;;
22234;SDS011;11286;45.596;5.284;2022-10-16T11:25:30;2.45;;;1.92;;
22234;SDS011;11286;45.596;5.284;2022-10-16T11:27:58;4.22;;;2.17;;
22234;SDS011;11286;45.596;5.284;2022-10-16T11:30:40;5.40;;;2.40;;
22234;SDS011;11286;45.596;5.284;2022-10-16T11:35:44;5.00;;;2.60;;
22234;SDS011;11286;45.596;5.284;2022-10-16T11:41:19;4.03;;;2.10;;
22234;SDS011;11286;45.596;5.284;2022-10-16T11:47:06;2.88;;;2.10;;
22234;SDS011;11286;45.596;5.284;2022-10-16T11:49:43;2.55;;;2.13;;
22234;SDS011;11286;45.596;5.284;2022-10-16T11:57:24;3.65;;;2.55;;
22234;SDS011;11286;45.596;5.284;2022-10-16T11:59:55;5.57;;;2.75;;
22234;SDS011;11286;45.596;5.284;2022-10-16T12:02:28;4.50;;;2.45;;
22234;SDS011;11286;45.596;5.284;2022-10-16T12:05:11;3.10;;;2.90;;
22234;SDS011;11286;45.596;5.284;2022-10-16T12:08:08;4.32;;;2.40;;
22234;SDS011;11286;45.596;5.284;2022-10-16T12:10:36;5.15;;;4.57;;
22234;SDS011;11286;45.596;5.284;2022-10-16T12:13:04;4.13;;;3.78;;
22234;SDS011;11286;45.596;5.284;2022-10-16T12:15:50;3.33;;;2.10;;
22234;SDS011;11286;45.596;5.284;2022-10-16T12:18:22;3.05;;;2.10;;
22234;SDS011;11286;45.596;5.284;2022-10-16T12:20:59;4.35;;;1.95;;
22234;SDS011;11286;45.596;5.284;2022-10-16T12:23:30;2.50;;;2.10;;
22234;SDS011;11286;45.596;5.284;2022-10-16T12:25:59;3.17;;;2.00;;
22234;SDS011;11286;45.596;5.284;2022-10-16T12:28:31;2.78;;;1.90;;
22234;SDS011;11286;45.596;5.284;2022-10-16T12:31:02;3.83;;;1.83;;
22234;SDS011;11286;45.596;5.284;2022-10-16T12:33:31;2.72;;;1.95;;
22234;SDS011;11286;45.596;5.284;2022-10-16T12:36:03;4.70;;;2.30;;
22234;SDS011;11286;45.596;5.284;2022-10-16T12:38:51;2.50;;;1.92;;
22234;SDS011;11286;45.596;5.284;2022-10-16T12:41:28;3.25;;;1.98;;
22234;SDS011;11286;45.596;5.284;2022-10-16T12:43:55;3.63;;;2.30;;
22234;SDS011;11286;45.596;5.284;2022-10-16T12:48:48;3.55;;;2.03;;
22234;SDS011;11286;45.596;5.284;2022-10-16T12:56:32;4.25;;;2.15;;
22234;SDS011;11286;45.596;5.284;2022-10-16T12:59:06;3.65;;;2.33;;
22234;SDS011;11286;45.596;5.284;2022-10-16T13:02:05;3.72;;;2.20;;
22234;SDS011;11286;45.596;5.284;2022-10-16T13:13:54;3.25;;;2.10;;
22234;SDS011;11286;45.596;5.284;2022-10-16T13:28:21;2.70;;;2.00;;
22234;SDS011;11286;45.596;5.284;2022-10-16T13:30:28;2.33;;;2.13;;
22234;SDS011;11286;45.596;5.284;2022-10-16T13:35:30;3.88;;;2.60;;
22234;SDS011;11286;45.596;5.284;2022-10-16T13:38:08;3.50;;;2.15;;
22234;SDS011;11286;45.596;5.284;2022-10-16T13:40:36;2.38;;;2.17;;
22234;SDS011;11286;45.596;5.284;2022-10-16T13:43:12;2.53;;;1.83;;
22234;SDS011;11286;45.596;5.284;2022-10-16T13:45:38;3.67;;;2.70;;
22234;SDS011;11286;45.596;5.284;2022-10-16T13:48:04;4.03;;;2.38;;
22234;SDS011;11286;45.596;5.284;2022-10-16T13:50:31;3.22;;;2.30;;
22234;SDS011;11286;45.596;5.284;2022-10-16T13:53:06;3.00;;;2.35;;
22234;SDS011;11286;45.596;5.284;2022-10-16T13:55:37;2.92;;;2.40;;
22234;SDS011;11286;45.596;5.284;2022-10-16T13:58:21;4.15;;;2.25;;
22234;SDS011;11286;45.596;5.284;2022-10-16T14:01:03;4.28;;;2.25;;
22234;SDS011;11286;45.596;5.284;2022-10-16T14:03:31;4.00;;;2.40;;
22234;SDS011;11286;45.596;5.284;2022-10-16T14:06:02;3.25;;;2.00;;
22234;SDS011;11286;45.596;5.284;2022-10-16T14:08:31;5.30;;;2.58;;
22234;SDS011;11286;45.596;5.284;2022-10-16T14:10:59;4.43;;;2.30;;
22234;SDS011;11286;45.596;5.284;2022-10-16T14:13:39;4.57;;;2.38;;
22234;SDS011;11286;45.596;5.284;2022-10-16T14:16:15;3.63;;;2.63;;
22234;SDS011;11286;45.596;5.284;2022-10-16T14:18:44;2.83;;;2.63;;
22234;SDS011;11286;45.596;5.284;2022-10-16T14:21:14;3.53;;;2.40;;
22234;SDS011;11286;45.596;5.284;2022-10-16T14:23:41;5.60;;;2.88;;
22234;SDS011;11286;45.596;5.284;2022-10-16T14:28:33;2.85;;;2.40;;
22234;SDS011;11286;45.596;5.284;2022-10-16T14:31:00;4.63;;;2.60;;
22234;SDS011;11286;45.596;5.284;2022-10-16T14:36:35;4.25;;;2.50;;
22234;SDS011;11286;45.596;5.284;2022-10-16T14:39:03;5.10;;;2.60;;
22234;SDS011;11286;45.596;5.284;2022-10-16T14:41:31;4.72;;;2.63;;
22234;SDS011;11286;45.596;5.284;2022-10-16T14:44:05;4.70;;;2.72;;
22234;SDS011;11286;45.596;5.284;2022-10-16T14:46:33;3.95;;;3.05;;
22234;SDS011;11286;45.596;5.284;2022-10-16T14:51:36;4.15;;;2.78;;
22234;SDS011;11286;45.596;5.284;2022-10-16T14:54:03;4.13;;;3.22;;
22234;SDS011;11286;45.596;5.284;2022-10-16T14:56:29;6.22;;;3.30;;
22234;SDS011;11286;45.596;5.284;2022-10-16T14:58:59;3.58;;;2.53;;
22234;SDS011;11286;45.596;5.284;2022-10-16T15:01:26;3.30;;;2.97;;
22234;SDS011;11286;45.596;5.284;2022-10-16T15:03:51;3.10;;;2.63;;
22234;SDS011;11286;45.596;5.284;2022-10-16T15:06:19;4.68;;;3.22;;
22234;SDS011;11286;45.596;5.284;2022-10-16T15:08:45;3.67;;;2.75;;
22234;SDS011;11286;45.596;5.284;2022-10-16T15:11:12;3.85;;;2.55;;
22234;SDS011;11286;45.596;5.284;2022-10-16T15:13:40;5.65;;;3.30;;
22234;SDS011;11286;45.596;5.284;2022-10-16T15:16:07;3.22;;;2.88;;
22234;SDS011;11286;45.596;5.284;2022-10-16T15:18:38;4.45;;;2.90;;
22234;SDS011;11286;45.596;5.284;2022-10-16T15:21:04;4.82;;;3.10;;
22234;SDS011;11286;45.596;5.284;2022-10-16T15:23:30;5.22;;;2.63;;
22234;SDS011;11286;45.596;5.284;2022-10-16T15:25:56;3.00;;;2.67;;
22234;SDS011;11286;45.596;5.284;2022-10-16T15:28:22;3.72;;;2.70;;
22234;SDS011;11286;45.596;5.284;2022-10-16T15:30:51;3.45;;;2.70;;
22234;SDS011;11286;45.596;5.284;2022-10-16T15:33:19;4.20;;;3.05;;
22234;SDS011;11286;45.596;5.284;2022-10-16T15:35:48;3.65;;;2.72;;
22234;SDS011;11286;45.596;5.284;2022-10-16T15:38:15;5.78;;;2.70;;
22234;SDS011;11286;45.596;5.284;2022-10-16T15:40:42;3.28;;;2.97;;
22234;SDS011;11286;45.596;5.284;2022-10-16T15:43:08;3.35;;;2.83;;
22234;SDS011;11286;45.596;5.284;2022-10-16T15:45:34;5.93;;;2.90;;
22234;SDS011;11286;45.596;5.284;2022-10-16T15:47:59;4.97;;;2.90;;
22234;SDS011;11286;45.596;5.284;2022-10-16T15:50:25;3.70;;;3.03;;
22234;SDS011;11286;45.596;5.284;2022-10-16T15:52:52;3.80;;;2.80;;
22234;SDS011;11286;45.596;5.284;2022-10-16T15:55:17;4.28;;;2.67;;
22234;SDS011;11286;45.596;5.284;2022-10-16T15:57:44;5.00;;;2.60;;
22234;SDS011;11286;45.596;5.284;2022-10-16T16:00:17;3.63;;;2.78;;
22234;SDS011;11286;45.596;5.284;2022-10-16T16:02:51;3.70;;;2.30;;
22234;SDS011;11286;45.596;5.284;2022-10-16T16:05:18;4.80;;;2.60;;
22234;SDS011;11286;45.596;5.284;2022-10-16T16:07:45;5.40;;;3.47;;
22234;SDS011;11286;45.596;5.284;2022-10-16T16:10:11;3.90;;;2.20;;
22234;SDS011;11286;45.596;5.284;2022-10-16T16:12:37;3.10;;;2.60;;
22234;SDS011;11286;45.596;5.284;2022-10-16T16:15:03;3.75;;;3.08;;
22234;SDS011;11286;45.596;5.284;2022-10-16T16:17:34;3.28;;;2.88;;
22234;SDS011;11286;45.596;5.284;2022-10-16T16:20:00;5.43;;;2.90;;
22234;SDS011;11286;45.596;5.284;2022-10-16T16:22:26;5.82;;;2.92;;
22234;SDS011;11286;45.596;5.284;2022-10-16T16:24:52;5.93;;;3.03;;
22234;SDS011;11286;45.596;5.284;2022-10-16T16:27:18;3.97;;;2.65;;
22234;SDS011;11286;45.596;5.284;2022-10-16T16:29:44;3.17;;;2.88;;
22234;SDS011;11286;45.596;5.284;2022-10-16T16:32:10;4.68;;;2.92;;
22234;SDS011;11286;45.596;5.284;2022-10-16T16:34:36;4.45;;;3.35;;
22234;SDS011;11286;45.596;5.284;2022-10-16T16:37:02;5.50;;;3.13;;
22234;SDS011;11286;45.596;5.284;2022-10-16T16:39:27;3.40;;;2.97;;
22234;SDS011;11286;45.596;5.284;2022-10-16T16:41:55;3.97;;;3.10;;
22234;SDS011;11286;45.596;5.284;2022-10-16T16:44:21;3.97;;;3.00;;